Time;durP1;ratioP1;P1;durP2;ratioP2;P2;SDS_P1;SDS_P2;PMS_P1;PMS_P2;Temp;Humidity;BMP_temperature;BMP_pressure;BME280_temperature;BME280_humidity;BME280_pressure;Samples;Min_cycle;Max_cycle;Signal;HPM_P1;HPM_P2
2021/09/21 04:37:22;;;;;;;1.02;0.60;;;;;;;8.60;99.81;99932.70;1762391;81;21556;-34
2021/09/21 04:39:50;;;;;;;1.47;0.70;;;;;;;8.57;99.15;99932.68;1773130;81;21030;-34
2021/09/21 04:42:21;;;;;;;1.57;1.35;;;;;;;8.57;98.27;99935.29;1765555;80;21018;-34
2021/09/21 04:44:47;;;;;;;1.07;1.00;;;;;;;8.56;96.91;99938.77;1768970;80;21069;-33
2021/09/21 04:47:18;;;;;;;1.87;1.10;;;;;;;8.56;96.87;99933.55;1767512;80;21010;-33
2021/09/21 04:49:46;;;;;;;1.60;1.22;;;;;;;8.58;96.50;99937.02;1738664;81;21100;-38
2021/09/21 04:52:14;;;;;;;1.35;1.25;;;;;;;8.62;95.62;99928.35;1767492;80;20985;-39
2021/09/21 04:54:47;;;;;;;2.05;1.22;;;;;;;8.65;95.28;99937.06;1758423;80;21564;-36
2021/09/21 04:57:14;;;;;;;4.22;2.12;;;;;;;8.69;95.01;99937.92;1759781;80;21544;-33
2021/09/21 04:59:41;;;;;;;1.20;1.10;;;;;;;8.74;95.13;99935.76;1757310;80;21477;-33
2021/09/21 05:02:08;;;;;;;2.15;1.95;;;;;;;8.80;93.95;99938.38;1758160;80;21001;-33
2021/09/21 05:04:34;;;;;;;1.52;1.37;;;;;;;8.82;92.83;99934.48;1757562;80;21044;-38
2021/09/21 05:07:01;;;;;;;2.02;1.22;;;;;;;8.84;93.24;99940.56;1761601;80;21020;-34
2021/09/21 05:09:29;;;;;;;1.92;1.27;;;;;;;8.87;92.49;99943.20;1758156;79;21058;-33
2021/09/21 05:11:58;;;;;;;2.90;1.00;;;;;;;8.87;90.83;99945.80;1732877;82;21029;-38
2021/09/21 05:14:25;;;;;;;2.83;1.10;;;;;;;8.84;90.45;99939.70;1727955;81;21509;-33
2021/09/21 05:16:54;;;;;;;1.27;1.17;;;;;;;8.81;90.38;99949.67;1759123;80;21012;-38
2021/09/21 05:19:22;;;;;;;1.30;1.20;;;;;;;8.78;90.44;99949.69;1726020;81;22127;-33
2021/09/21 05:21:50;;;;;;;5.33;1.30;;;;;;;8.74;89.89;99954.02;1733940;81;21029;-37
2021/09/21 05:24:17;;;;;;;3.70;1.40;;;;;;;8.73;90.23;99952.28;1733652;80;21684;-32
2021/09/21 05:26:46;;;;;;;1.55;1.10;;;;;;;8.74;90.57;99960.53;1728350;80;21536;-34
2021/09/21 05:29:27;;;;;;;2.08;1.37;;;;;;;8.77;88.56;99955.78;1756980;80;21053;-34
2021/09/21 05:31:54;;;;;;;2.00;1.30;;;;;;;8.75;87.71;99962.27;1755111;79;21328;-39
2021/09/21 05:34:27;;;;;;;3.25;1.45;;;;;;;8.72;87.31;99969.23;1727393;81;21957;-39
2021/09/21 05:36:54;;;;;;;1.85;1.15;;;;;;;8.69;87.78;99965.30;1736333;81;20984;-39
2021/09/21 05:39:24;;;;;;;0.93;0.93;;;;;;;8.67;88.09;99965.31;1755983;80;21178;-33
2021/09/21 05:42:00;;;;;;;1.33;1.03;;;;;;;8.65;88.01;99969.66;1734661;81;21093;-38
2021/09/21 05:44:31;;;;;;;0.80;0.80;;;;;;;8.67;88.55;99974.44;1741487;81;21056;-33
2021/09/21 05:46:59;;;;;;;1.07;1.00;;;;;;;8.70;88.47;99972.29;1746751;81;21548;-39
2021/09/21 05:49:27;;;;;;;1.72;1.10;;;;;;;8.73;88.32;99978.80;1721776;82;21144;-33
2021/09/21 05:51:54;;;;;;;1.35;1.10;;;;;;;8.74;88.64;99972.71;1743599;81;21537;-33
2021/09/21 05:54:21;;;;;;;1.50;1.27;;;;;;;8.76;88.99;99977.08;1760992;80;21050;-33
2021/09/21 05:56:49;;;;;;;1.50;1.40;;;;;;;8.77;88.12;99980.56;1728871;81;21005;-39
2021/09/21 05:59:15;;;;;;;1.55;1.40;;;;;;;8.73;87.85;99986.63;1743683;81;21040;-33
2021/09/21 06:01:44;;;;;;;1.92;1.60;;;;;;;8.72;88.09;99984.89;1744841;80;21024;-33
2021/09/21 06:04:13;;;;;;;1.90;1.72;;;;;;;8.71;87.68;99986.63;1755434;80;21855;-33
2021/09/21 06:06:40;;;;;;;2.02;1.50;;;;;;;8.68;87.54;99989.22;1731357;82;21024;-38
2021/09/21 06:09:08;;;;;;;1.72;1.60;;;;;;;8.66;87.77;99992.27;1753750;80;21024;-33
2021/09/21 06:11:37;;;;;;;2.70;2.50;;;;;;;8.63;88.23;99996.15;1750104;81;21017;-39
2021/09/21 06:14:06;;;;;;;2.62;2.20;;;;;;;8.60;87.75;99995.29;1734691;80;21686;-38
2021/09/21 06:16:34;;;;;;;2.20;2.00;;;;;;;8.53;88.12;99999.18;1761183;80;21606;-33
2021/09/21 06:19:05;;;;;;;2.42;2.22;;;;;;;8.47;88.27;100000.46;1725720;81;21129;-39
2021/09/21 06:21:51;;;;;;;3.22;2.92;;;;;;;8.41;88.96;100003.05;1710225;82;21136;-33
2021/09/21 06:24:27;;;;;;;3.33;2.47;;;;;;;8.34;90.12;100009.05;1758499;80;21120;-38
2021/09/21 06:28:09;;;;;;;4.37;3.00;;;;;;;8.27;91.52;100016.40;1758225;80;21562;-38
2021/09/21 06:42:40;;;;;;;3.85;3.55;;;;;;;8.08;90.51;100021.09;1647980;85;21427;-33
2021/09/21 06:45:25;;;;;;;3.30;2.90;;;;;;;8.10;89.56;100029.34;1616001;87;21613;-33
2021/09/21 06:48:21;;;;;;;3.30;3.00;;;;;;;8.14;88.93;100025.90;1627830;83;21168;-32
2021/09/21 06:55:53;;;;;;;2.30;2.10;;;;;;;8.34;86.24;100026.42;1642442;85;22589;-38
2021/09/21 06:58:26;;;;;;;3.02;1.80;;;;;;;8.50;85.53;100023.92;1642401;85;21056;-37
2021/09/21 07:00:55;;;;;;;1.75;1.62;;;;;;;8.69;83.08;100019.64;1618874;87;21073;-33
2021/09/21 07:03:23;;;;;;;3.12;1.82;;;;;;;8.78;80.58;100022.73;1638774;86;21071;-38
2021/09/21 07:05:54;;;;;;;2.35;1.42;;;;;;;8.87;80.20;100013.63;1637946;86;21079;-32
2021/09/21 07:08:23;;;;;;;3.55;2.42;;;;;;;8.99;79.97;100027.14;1635300;86;21500;-37
2021/09/21 07:10:50;;;;;;;2.12;1.90;;;;;;;9.09;77.39;100027.57;1600819;87;21610;-32
2021/09/21 07:13:36;;;;;;;2.95;1.57;;;;;;;9.13;77.60;100025.41;1617774;88;21033;-32
2021/09/21 07:17:02;;;;;;;1.87;1.57;;;;;;;9.17;76.15;100035.44;1594696;88;21418;-34
2021/09/21 07:24:50;;;;;;;2.17;1.98;;;;;;;9.30;76.87;100038.48;1632400;86;21074;-39
2021/09/21 07:27:29;;;;;;;2.12;1.92;;;;;;;9.40;75.17;100034.16;1671868;84;21029;-32
2021/09/21 07:31:02;;;;;;;2.27;2.08;;;;;;;9.41;72.61;100038.50;1672856;84;21021;-32
2021/09/21 07:34:00;;;;;;;2.42;2.22;;;;;;;9.42;73.08;100030.66;1698332;82;21028;-38
2021/09/21 07:36:28;;;;;;;1.77;1.42;;;;;;;9.44;73.60;100039.80;1678207;85;21578;-38
2021/09/21 07:38:56;;;;;;;1.40;1.30;;;;;;;9.45;73.26;100049.36;1669357;84;21050;-38
2021/09/21 07:41:23;;;;;;;1.27;1.17;;;;;;;9.48;72.29;100041.11;1696979;84;21354;-32
2021/09/21 07:43:50;;;;;;;1.20;1.10;;;;;;;9.52;71.71;100040.69;1728943;81;21029;-38
2021/09/21 07:46:18;;;;;;;1.35;0.80;;;;;;;9.63;72.03;100043.30;1731018;81;21549;-32
2021/09/21 07:48:45;;;;;;;1.27;1.15;;;;;;;9.70;69.80;100046.34;1736253;81;21029;-32
2021/09/21 07:51:12;;;;;;;1.32;1.10;;;;;;;9.75;69.37;100039.38;1732682;82;21024;-32
2021/09/21 07:53:40;;;;;;;2.55;0.95;;;;;;;9.81;68.45;100046.77;1735925;80;21056;-38
2021/09/21 07:56:07;;;;;;;2.85;0.80;;;;;;;9.86;67.85;100045.03;1732390;81;21067;-38
2021/09/21 07:58:34;;;;;;;2.17;1.35;;;;;;;9.92;68.46;100044.15;1734224;81;21053;-32
2021/09/21 08:01:01;;;;;;;5.15;1.30;;;;;;;10.02;67.86;100044.55;1729701;81;21607;-33
2021/09/21 08:03:30;;;;;;;1.75;1.50;;;;;;;10.05;67.25;100050.22;1732080;81;21084;-38
2021/09/21 08:06:00;;;;;;;1.45;1.32;;;;;;;9.98;68.10;100048.06;1711352;81;21362;-38
2021/09/21 08:08:28;;;;;;;3.12;0.65;;;;;;;9.93;68.36;100043.27;1735682;80;21117;-32
2021/09/21 08:11:07;;;;;;;1.12;1.02;;;;;;;9.90;68.96;100043.27;1730939;80;21037;-38
2021/09/21 08:13:35;;;;;;;1.32;1.22;;;;;;;9.91;69.13;100045.44;1735720;80;21052;-38
2021/09/21 08:16:15;;;;;;;1.47;1.20;;;;;;;9.91;68.06;100052.84;1732357;82;20993;-38
2021/09/21 08:19:48;;;;;;;2.47;1.00;;;;;;;9.86;67.83;100054.17;1735769;80;21053;-33
2021/09/21 08:23:21;;;;;;;1.45;1.10;;;;;;;9.84;68.79;100057.20;1730112;81;21686;-38
2021/09/21 08:26:08;;;;;;;3.80;1.17;;;;;;;9.93;69.27;100050.25;1732951;82;21401;-38
2021/09/21 08:28:36;;;;;;;1.00;1.00;;;;;;;10.00;68.51;100048.91;1735926;81;21869;-38
2021/09/21 08:31:03;;;;;;;1.42;1.27;;;;;;;10.03;68.68;100051.54;1732909;80;21339;-39
2021/09/21 08:33:32;;;;;;;2.10;1.30;;;;;;;10.05;67.92;100047.61;1734843;80;21024;-39
2021/09/21 08:36:01;;;;;;;1.27;1.17;;;;;;;10.03;69.17;100051.95;1736649;81;21080;-37
2021/09/21 08:38:28;;;;;;;1.30;1.20;;;;;;;10.05;68.66;100050.22;1734154;82;21483;-37
2021/09/21 08:40:55;;;;;;;1.40;1.30;;;;;;;10.13;69.21;100048.45;1734169;82;21581;-39
2021/09/21 08:43:21;;;;;;;1.98;1.55;;;;;;;10.27;69.50;100044.11;1738051;81;21052;-32
2021/09/21 08:45:48;;;;;;;2.40;1.80;;;;;;;10.43;68.99;100042.30;1736824;81;21437;-38
2021/09/21 08:48:17;;;;;;;2.35;1.82;;;;;;;10.56;67.94;100041.39;1732760;81;22007;-38
2021/09/21 08:50:43;;;;;;;1.60;1.35;;;;;;;10.61;67.46;100042.25;1736250;82;21013;-38
2021/09/21 08:53:11;;;;;;;1.15;0.98;;;;;;;10.63;66.82;100039.18;1735210;82;21709;-32
2021/09/21 08:55:40;;;;;;;1.12;1.02;;;;;;;10.64;65.88;100034.81;1742870;81;20997;-34
2021/09/21 08:58:07;;;;;;;1.30;1.20;;;;;;;10.61;65.95;100047.89;1741759;81;20989;-34
2021/09/21 09:00:34;;;;;;;3.52;1.32;;;;;;;10.57;65.25;100048.36;1733034;81;21024;-36
2021/09/21 09:03:11;;;;;;;1.77;1.52;;;;;;;10.58;66.21;100048.79;1726326;81;21472;-32
2021/09/21 09:05:53;;;;;;;1.85;1.47;;;;;;;10.67;66.87;100042.66;1710498;82;21001;-38
2021/09/21 09:08:37;;;;;;;2.25;1.40;;;;;;;10.79;65.91;100048.28;1739490;81;21151;-38
2021/09/21 09:11:22;;;;;;;2.05;1.77;;;;;;;10.85;66.60;100046.94;1738039;82;21472;-32
2021/09/21 09:13:56;;;;;;;3.15;1.47;;;;;;;10.91;65.58;100046.46;1736542;81;21945;-38
2021/09/21 09:16:26;;;;;;;1.55;1.45;;;;;;;11.00;66.08;100057.75;1735519;80;21076;-33
2021/09/21 09:19:07;;;;;;;5.28;1.10;;;;;;;11.11;65.18;100050.70;1736598;81;21678;-38
2021/09/21 09:22:27;;;;;;;1.80;1.70;;;;;;;11.17;64.74;100050.66;1735612;80;21015;-32
2021/09/21 09:28:37;;;;;;;3.67;2.58;;;;;;;11.21;63.51;100041.92;1730754;81;21646;-33
2021/09/21 09:31:17;;;;;;;2.17;1.72;;;;;;;11.19;63.99;100047.63;1736777;82;21394;-43
2021/09/21 09:33:49;;;;;;;1.30;1.20;;;;;;;11.23;64.56;100047.14;1726515;82;21064;-38
2021/09/21 09:36:23;;;;;;;1.77;1.10;;;;;;;11.31;64.68;100041.43;1733367;82;21468;-38
2021/09/21 09:39:02;;;;;;;1.20;1.10;;;;;;;11.37;64.32;100040.94;1712021;82;21029;-38
2021/09/21 09:41:40;;;;;;;1.42;1.32;;;;;;;11.32;62.12;100037.48;1705303;82;20988;-31
2021/09/21 09:44:14;;;;;;;0.70;0.70;;;;;;;11.16;62.36;100039.33;1704593;83;21048;-36
2021/09/21 09:46:52;;;;;;;3.42;1.17;;;;;;;11.08;63.91;100039.83;1702338;82;21000;-37
2021/09/21 09:49:23;;;;;;;1.37;1.27;;;;;;;11.07;62.99;100036.75;1701141;84;21019;-31
2021/09/21 09:51:51;;;;;;;1.17;1.00;;;;;;;11.07;63.67;100043.30;1650890;83;21022;-37
2021/09/21 09:54:18;;;;;;;1.12;1.00;;;;;;;11.10;63.06;100041.12;1708760;82;21016;-38
2021/09/21 09:56:45;;;;;;;0.93;0.90;;;;;;;11.10;62.30;100033.27;1687799;83;21004;-38
2021/09/21 09:59:15;;;;;;;1.42;1.07;;;;;;;11.07;61.40;100039.81;1706929;82;21059;-37
2021/09/21 10:01:43;;;;;;;1.45;1.00;;;;;;;11.00;62.73;100040.73;1704226;83;21520;-37
2021/09/21 10:04:12;;;;;;;1.45;0.85;;;;;;;10.90;62.35;100043.42;1704981;82;21037;-38
2021/09/21 10:06:41;;;;;;;1.25;0.98;;;;;;;10.80;63.58;100048.70;1708051;82;21008;-37
2021/09/21 10:09:10;;;;;;;2.55;0.80;;;;;;;10.72;64.55;100052.64;1688820;83;21052;-32
2021/09/21 10:11:38;;;;;;;0.72;0.72;;;;;;;10.64;64.65;100065.77;1702971;82;21417;-38
2021/09/21 10:14:06;;;;;;;1.12;1.00;;;;;;;10.54;64.68;100050.11;1705307;82;21115;-33
2021/09/21 10:16:34;;;;;;;3.72;1.00;;;;;;;10.45;65.46;100052.33;1708228;82;21417;-38
2021/09/21 10:19:03;;;;;;;1.10;1.00;;;;;;;10.43;65.93;100049.27;1702504;82;21696;-38
2021/09/21 10:21:38;;;;;;;0.60;0.60;;;;;;;10.44;65.64;100041.45;1674551;83;21023;-32
2021/09/21 10:24:07;;;;;;;0.68;0.68;;;;;;;10.60;65.97;100044.41;1705293;82;21128;-38
2021/09/21 10:26:45;;;;;;;0.68;0.68;;;;;;;11.15;64.66;100036.28;1713531;82;21009;-33
2021/09/21 10:29:14;;;;;;;1.10;0.80;;;;;;;11.74;64.02;100031.46;1698276;82;21554;-33
2021/09/21 10:31:40;;;;;;;1.22;0.95;;;;;;;12.38;61.14;100031.28;1706017;82;21047;-34
2021/09/21 10:34:15;;;;;;;0.75;0.75;;;;;;;12.65;58.11;100028.33;1706992;82;21448;-35
2021/09/21 10:36:52;;;;;;;1.45;0.90;;;;;;;12.63;58.25;100031.41;1709611;82;20976;-34
2021/09/21 10:39:21;;;;;;;0.82;0.82;;;;;;;12.48;58.99;100036.41;1703064;82;21452;-38
2021/09/21 10:41:58;;;;;;;7.55;0.80;;;;;;;12.24;59.08;100043.25;1710831;82;21001;-38
2021/09/21 10:44:25;;;;;;;1.12;0.78;;;;;;;11.89;61.45;100065.45;1706254;82;21056;-33
2021/09/21 10:47:00;;;;;;;2.92;1.00;;;;;;;11.42;63.19;100070.59;1705833;84;20969;-38
2021/09/21 10:49:40;;;;;;;5.12;1.00;;;;;;;10.95;65.22;100066.92;1700480;82;21411;-32
2021/09/21 10:52:15;;;;;;;1.17;1.07;;;;;;;10.56;66.30;100068.00;1705648;82;21025;-38
2021/09/21 10:54:46;;;;;;;1.37;0.90;;;;;;;10.29;67.78;100068.94;1697690;82;21641;-38
2021/09/21 10:57:30;;;;;;;1.20;0.80;;;;;;;10.11;68.83;100072.43;1690264;83;21094;-32
2021/09/21 11:00:07;;;;;;;1.02;0.80;;;;;;;10.02;68.94;100072.42;1688317;83;21021;-32
2021/09/21 11:02:44;;;;;;;1.22;1.07;;;;;;;10.02;69.08;100072.42;1686980;83;21006;-39
2021/09/21 11:05:16;;;;;;;1.37;0.90;;;;;;;10.08;68.96;100066.75;1683676;83;21061;-38
2021/09/21 11:07:52;;;;;;;0.50;0.50;;;;;;;10.18;69.34;100062.83;1686527;84;21017;-39
2021/09/21 11:10:19;;;;;;;0.80;0.80;;;;;;;10.27;67.34;100065.03;1686021;83;20970;-33
2021/09/21 11:12:51;;;;;;;0.90;0.90;;;;;;;10.37;68.12;100077.18;1686184;84;21056;-39
2021/09/21 11:15:44;;;;;;;1.15;1.00;;;;;;;10.46;67.05;100060.61;1684717;83;21080;-32
2021/09/21 11:22:36;;;;;;;1.05;0.95;;;;;;;10.85;66.00;100062.20;1681023;84;20989;-33
2021/09/21 11:25:14;;;;;;;1.05;1.00;;;;;;;11.52;64.56;100039.94;1687845;84;21304;-33
2021/09/21 11:31:48;;;;;;;1.32;1.22;;;;;;;12.05;62.06;100041.23;1686649;84;21446;-33
2021/09/21 11:34:39;;;;;;;1.27;0.98;;;;;;;11.95;61.25;100044.86;1686955;84;21470;-38
2021/09/21 11:37:10;;;;;;;2.00;1.02;;;;;;;11.71;60.82;100055.96;1690900;83;21057;-38
2021/09/21 11:39:35;;;;;;;2.52;1.45;;;;;;;11.46;61.83;100080.59;1660570;83;21455;-39
2021/09/21 11:42:03;;;;;;;1.37;1.27;;;;;;;11.19;62.96;100072.05;1633798;84;20963;-39
2021/09/21 11:44:40;;;;;;;1.62;1.45;;;;;;;10.96;63.60;100080.47;1683730;83;21433;-33
2021/09/21 11:47:19;;;;;;;4.40;1.27;;;;;;;10.75;64.70;100076.64;1662693;84;22013;-34
2021/09/21 11:50:47;;;;;;;2.00;1.60;;;;;;;10.58;65.22;100088.47;1676377;84;21394;-38
2021/09/21 11:53:32;;;;;;;1.30;1.20;;;;;;;10.45;65.99;100082.41;1675764;83;21071;-38
2021/09/21 11:56:05;;;;;;;1.37;1.27;;;;;;;10.34;65.22;100071.97;1669710;82;21457;-39
2021/09/21 11:58:33;;;;;;;1.90;1.20;;;;;;;10.28;65.19;100081.58;1734772;81;21674;-39
2021/09/21 12:01:05;;;;;;;3.67;1.22;;;;;;;10.25;64.08;100090.73;1733123;81;21024;-33
2021/09/21 12:03:34;;;;;;;1.25;1.00;;;;;;;10.19;64.47;100090.27;1739852;82;21076;-33
2021/09/21 12:06:03;;;;;;;1.30;1.10;;;;;;;10.18;64.83;100105.52;1735968;80;21415;-33
2021/09/21 12:08:33;;;;;;;1.55;1.20;;;;;;;10.18;64.62;100096.81;1738272;80;21390;-33
2021/09/21 12:11:09;;;;;;;2.30;1.30;;;;;;;10.19;64.51;100085.03;1735008;82;21078;-33
2021/09/21 12:13:37;;;;;;;3.22;2.30;;;;;;;10.21;65.14;100093.77;1736910;81;21015;-39
2021/09/21 12:16:09;;;;;;;0.90;0.88;;;;;;;10.23;64.80;100085.91;1734885;82;21479;-32
2021/09/21 12:18:36;;;;;;;1.00;0.90;;;;;;;10.23;65.35;100097.68;1734485;82;21073;-33
2021/09/21 12:21:08;;;;;;;1.55;1.37;;;;;;;10.18;64.15;100088.97;1733792;82;21460;-32
2021/09/21 12:23:38;;;;;;;1.62;0.98;;;;;;;10.13;64.56;100096.81;1729995;81;21037;-32
2021/09/21 12:26:07;;;;;;;1.40;1.30;;;;;;;10.08;64.67;100097.25;1728775;82;21883;-32
2021/09/21 12:28:37;;;;;;;1.72;1.35;;;;;;;9.98;64.77;100099.02;1728479;82;21044;-32
2021/09/21 12:31:28;;;;;;;5.85;1.30;;;;;;;9.93;65.25;100101.20;1735633;82;21048;-32
2021/09/21 12:33:58;;;;;;;1.37;1.17;;;;;;;9.89;65.96;100102.94;1732810;82;21040;-33
2021/09/21 12:36:29;;;;;;;1.72;1.62;;;;;;;9.88;66.12;100112.09;1737773;81;21018;-33
2021/09/21 12:39:02;;;;;;;1.52;1.30;;;;;;;9.83;66.12;100112.08;1738377;81;21139;-32
2021/09/21 12:41:35;;;;;;;1.42;1.12;;;;;;;9.79;65.89;100105.11;1740298;81;21027;-33
2021/09/21 12:44:06;;;;;;;2.08;1.25;;;;;;;9.77;66.43;100108.16;1743683;81;21044;-32
2021/09/21 12:46:30;;;;;;;1.32;0.98;;;;;;;9.78;66.20;100113.38;1734038;81;21005;-32
2021/09/21 12:48:59;;;;;;;0.98;0.98;;;;;;;9.82;66.03;100105.13;1730607;81;21111;-38
2021/09/21 12:51:41;;;;;;;1.20;1.10;;;;;;;9.86;66.39;100105.56;1734432;82;21307;-33
2021/09/21 12:54:13;;;;;;;1.20;1.10;;;;;;;9.95;66.39;100100.31;1713465;82;21619;-37
2021/09/21 12:56:46;;;;;;;0.95;0.90;;;;;;;10.03;65.75;100100.30;1712651;82;20986;-32
2021/09/21 12:59:18;;;;;;;1.00;1.00;;;;;;;10.07;65.43;100093.77;1724402;82;21056;-38
2021/09/21 13:01:46;;;;;;;2.08;0.95;;;;;;;10.09;65.23;100098.58;1743199;82;20993;-38
2021/09/21 13:04:13;;;;;;;1.02;0.93;;;;;;;10.10;64.62;100095.53;1730979;81;21777;-37
2021/09/21 13:06:43;;;;;;;1.77;1.02;;;;;;;10.07;65.12;100093.77;1741217;82;20961;-38
2021/09/21 13:09:11;;;;;;;3.00;0.85;;;;;;;10.07;65.29;100099.44;1725194;82;21465;-32
2021/09/21 13:11:37;;;;;;;1.30;0.82;;;;;;;10.04;64.96;100104.24;1735810;82;21032;-32
2021/09/21 13:14:06;;;;;;;0.68;0.68;;;;;;;10.02;65.29;100103.35;1736102;82;21049;-33
2021/09/21 13:16:35;;;;;;;1.02;0.98;;;;;;;10.01;65.56;100114.69;1743726;81;21436;-38
2021/09/21 13:19:03;;;;;;;2.40;0.93;;;;;;;10.00;65.98;100103.80;1733464;82;21161;-38
2021/09/21 13:21:30;;;;;;;1.60;1.12;;;;;;;9.99;66.10;100113.83;1743577;82;21005;-38
2021/09/21 13:23:58;;;;;;;1.15;1.00;;;;;;;9.94;66.17;100118.18;1744652;81;21080;-37
2021/09/21 13:26:25;;;;;;;1.60;1.30;;;;;;;9.88;65.31;100112.09;1745358;82;20985;-33
2021/09/21 13:28:52;;;;;;;1.70;1.30;;;;;;;9.86;65.82;100110.36;1744972;81;21137;-38
2021/09/21 13:31:21;;;;;;;1.47;1.12;;;;;;;9.85;65.57;100116.42;1742538;81;20988;-32
2021/09/21 13:33:50;;;;;;;1.72;1.22;;;;;;;9.83;65.15;100119.48;1742855;82;21615;-33
2021/09/21 13:36:19;;;;;;;5.05;1.40;;;;;;;9.81;65.31;100126.46;1744917;82;21001;-32
2021/09/21 13:38:47;;;;;;;1.87;1.30;;;;;;;9.80;65.61;100114.71;1724070;82;21720;-33
2021/09/21 13:41:14;;;;;;;2.02;1.10;;;;;;;9.79;64.42;100120.34;1720982;82;21427;-38
2021/09/21 13:43:44;;;;;;;4.08;0.98;;;;;;;9.77;64.29;100126.02;1709748;81;21089;-37
2021/09/21 13:46:11;;;;;;;1.60;1.10;;;;;;;9.78;64.76;100128.19;1721240;82;21567;-38
2021/09/21 13:48:37;;;;;;;1.40;1.20;;;;;;;9.78;65.12;100129.50;1745042;82;21089;-32
2021/09/21 13:51:05;;;;;;;1.98;1.30;;;;;;;9.79;65.10;100122.95;1736218;82;21031;-37
2021/09/21 13:53:32;;;;;;;2.12;1.40;;;;;;;9.79;64.57;100123.39;1744843;82;21584;-33
2021/09/21 13:55:59;;;;;;;1.40;1.20;;;;;;;9.79;64.92;100124.27;1739176;82;21559;-32
2021/09/21 13:58:26;;;;;;;1.20;1.10;;;;;;;9.81;64.94;100120.37;1748987;81;21637;-38
2021/09/21 14:00:53;;;;;;;1.27;1.17;;;;;;;9.83;65.02;100121.23;1715085;83;21780;-38
2021/09/21 14:03:20;;;;;;;1.32;1.10;;;;;;;9.84;64.82;100129.06;1713901;82;21011;-38
2021/09/21 14:05:48;;;;;;;1.87;1.30;;;;;;;9.88;64.62;100125.16;1684950;85;21001;-37
2021/09/21 14:08:16;;;;;;;1.50;1.00;;;;;;;9.89;64.46;100128.20;1678585;85;21092;-37
2021/09/21 14:10:43;;;;;;;2.05;1.00;;;;;;;9.89;65.14;100131.67;1693800;83;21029;-38
2021/09/21 14:13:11;;;;;;;2.55;1.65;;;;;;;9.91;65.54;100129.92;1697817;82;21018;-33
2021/09/21 14:15:37;;;;;;;4.42;1.50;;;;;;;9.94;64.85;100133.86;1684241;84;21023;-33
2021/09/21 14:18:06;;;;;;;2.10;1.45;;;;;;;9.93;63.68;100131.26;1667516;85;21135;-33
